sensor_id;sensor_type;location;lat;lon;timestamp;temperature;humidity
34434;DHT22;34290;48.562;13.384;2022-09-09T00:00:19;11.20;99.90
34434;DHT22;34290;48.562;13.384;2022-09-09T00:02:53;11.10;99.90
34434;DHT22;34290;48.562;13.384;2022-09-09T00:05:29;11.00;99.90
34434;DHT22;34290;48.562;13.384;2022-09-09T00:07:59;11.00;99.90
34434;DHT22;34290;48.562;13.384;2022-09-09T00:10:32;11.00;99.90
34434;DHT22;34290;48.562;13.384;2022-09-09T00:13:11;10.90;99.90
34434;DHT22;34290;48.562;13.384;2022-09-09T00:15:47;10.90;99.90
34434;DHT22;34290;48.562;13.384;2022-09-09T00:18:24;10.90;99.90
34434;DHT22;34290;48.562;13.384;2022-09-09T00:20:59;10.90;99.90
34434;DHT22;34290;48.562;13.384;2022-09-09T00:23:30;11.00;99.90
34434;DHT22;34290;48.562;13.384;2022-09-09T00:26:03;11.00;99.90
34434;DHT22;34290;48.562;13.384;2022-09-09T00:28:36;10.90;99.90
34434;DHT22;34290;48.562;13.384;2022-09-09T00:31:11;10.80;99.90
34434;DHT22;34290;48.562;13.384;2022-09-09T00:33:42;10.80;99.90
34434;DHT22;34290;48.562;13.384;2022-09-09T00:36:13;10.80;99.90
34434;DHT22;34290;48.562;13.384;2022-09-09T00:38:43;10.70;99.90
34434;DHT22;34290;48.562;13.384;2022-09-09T00:41:15;10.70;99.90
34434;DHT22;34290;48.562;13.384;2022-09-09T00:43:55;10.70;99.90
34434;DHT22;34290;48.562;13.384;2022-09-09T00:46:39;10.70;99.90
34434;DHT22;34290;48.562;13.384;2022-09-09T00:49:15;10.70;99.90
34434;DHT22;34290;48.562;13.384;2022-09-09T00:51:54;10.60;99.90
34434;DHT22;34290;48.562;13.384;2022-09-09T00:54:36;10.60;99.90
34434;DHT22;34290;48.562;13.384;2022-09-09T00:57:14;10.50;99.90
34434;DHT22;34290;48.562;13.384;2022-09-09T00:59:48;10.60;99.90
34434;DHT22;34290;48.562;13.384;2022-09-09T01:02:25;10.60;99.90
34434;DHT22;34290;48.562;13.384;2022-09-09T01:04:54;10.60;99.90
34434;DHT22;34290;48.562;13.384;2022-09-09T01:07:22;10.60;99.90
34434;DHT22;34290;48.562;13.384;2022-09-09T01:09:55;10.70;99.90
34434;DHT22;34290;48.562;13.384;2022-09-09T01:12:33;10.70;99.90
34434;DHT22;34290;48.562;13.384;2022-09-09T01:15:11;10.80;99.90
34434;DHT22;34290;48.562;13.384;2022-09-09T01:17:49;10.80;99.90
34434;DHT22;34290;48.562;13.384;2022-09-09T01:20:21;10.80;99.90
34434;DHT22;34290;48.562;13.384;2022-09-09T01:23:06;10.80;99.90
34434;DHT22;34290;48.562;13.384;2022-09-09T01:26:11;10.80;99.90
34434;DHT22;34290;48.562;13.384;2022-09-09T01:28:40;10.80;99.90
34434;DHT22;34290;48.562;13.384;2022-09-09T01:31:11;10.90;99.90
34434;DHT22;34290;48.562;13.384;2022-09-09T01:33:40;10.90;99.90
34434;DHT22;34290;48.562;13.384;2022-09-09T01:36:12;10.90;99.90
34434;DHT22;34290;48.562;13.384;2022-09-09T01:41:07;10.80;99.90
34434;DHT22;34290;48.562;13.384;2022-09-09T01:43:36;10.80;99.90
34434;DHT22;34290;48.562;13.384;2022-09-09T01:46:04;10.90;99.90
34434;DHT22;34290;48.562;13.384;2022-09-09T01:48:31;10.70;99.90
34434;DHT22;34290;48.562;13.384;2022-09-09T01:53:26;10.80;99.90
34434;DHT22;34290;48.562;13.384;2022-09-09T01:56:02;10.80;99.90
34434;DHT22;34290;48.562;13.384;2022-09-09T01:58:44;10.80;99.90
34434;DHT22;34290;48.562;13.384;2022-09-09T02:01:21;10.90;99.90
34434;DHT22;34290;48.562;13.384;2022-09-09T02:03:53;10.90;99.90
34434;DHT22;34290;48.562;13.384;2022-09-09T02:06:27;10.90;99.90
34434;DHT22;34290;48.562;13.384;2022-09-09T02:08:57;10.80;99.90
34434;DHT22;34290;48.562;13.384;2022-09-09T02:11:27;10.80;99.90
34434;DHT22;34290;48.562;13.384;2022-09-09T02:14:00;10.80;99.90
34434;DHT22;34290;48.562;13.384;2022-09-09T02:16:30;10.80;99.90
34434;DHT22;34290;48.562;13.384;2022-09-09T02:19:02;10.80;99.90
34434;DHT22;34290;48.562;13.384;2022-09-09T02:21:31;10.90;99.90
34434;DHT22;34290;48.562;13.384;2022-09-09T02:24:03;10.90;99.90
34434;DHT22;34290;48.562;13.384;2022-09-09T02:26:32;10.80;99.90
34434;DHT22;34290;48.562;13.384;2022-09-09T02:29:05;10.80;99.90
34434;DHT22;34290;48.562;13.384;2022-09-09T02:31:34;10.80;99.90
34434;DHT22;34290;48.562;13.384;2022-09-09T02:34:05;10.90;99.90
34434;DHT22;34290;48.562;13.384;2022-09-09T02:36:37;10.90;99.90
34434;DHT22;34290;48.562;13.384;2022-09-09T02:39:07;10.80;99.90
34434;DHT22;34290;48.562;13.384;2022-09-09T02:41:36;11.00;99.90
34434;DHT22;34290;48.562;13.384;2022-09-09T02:44:09;10.90;99.90
34434;DHT22;34290;48.562;13.384;2022-09-09T02:49:30;10.80;99.90
34434;DHT22;34290;48.562;13.384;2022-09-09T02:52:04;10.80;99.90
34434;DHT22;34290;48.562;13.384;2022-09-09T02:54:33;10.80;99.90
34434;DHT22;34290;48.562;13.384;2022-09-09T02:57:04;10.80;99.90
34434;DHT22;34290;48.562;13.384;2022-09-09T02:59:35;10.80;99.90
34434;DHT22;34290;48.562;13.384;2022-09-09T03:02:02;10.90;99.90
34434;DHT22;34290;48.562;13.384;2022-09-09T03:04:29;10.90;99.90
34434;DHT22;34290;48.562;13.384;2022-09-09T03:09:23;11.00;99.90
34434;DHT22;34290;48.562;13.384;2022-09-09T03:11:51;11.10;99.90
34434;DHT22;34290;48.562;13.384;2022-09-09T03:14:20;11.10;99.90
34434;DHT22;34290;48.562;13.384;2022-09-09T03:16:51;11.10;99.90
34434;DHT22;34290;48.562;13.384;2022-09-09T03:19:18;11.00;99.90
34434;DHT22;34290;48.562;13.384;2022-09-09T03:21:46;11.10;99.90
34434;DHT22;34290;48.562;13.384;2022-09-09T03:29:10;11.10;99.90
34434;DHT22;34290;48.562;13.384;2022-09-09T03:31:37;11.00;99.90
34434;DHT22;34290;48.562;13.384;2022-09-09T03:34:06;11.00;99.90
34434;DHT22;34290;48.562;13.384;2022-09-09T03:36:33;10.90;99.90
34434;DHT22;34290;48.562;13.384;2022-09-09T03:39:00;11.00;99.90
34434;DHT22;34290;48.562;13.384;2022-09-09T03:41:28;11.00;99.90
34434;DHT22;34290;48.562;13.384;2022-09-09T03:43:56;10.90;99.90
34434;DHT22;34290;48.562;13.384;2022-09-09T03:46:24;10.80;99.90
34434;DHT22;34290;48.562;13.384;2022-09-09T03:48:51;10.80;99.90
34434;DHT22;34290;48.562;13.384;2022-09-09T03:51:20;10.80;99.90
34434;DHT22;34290;48.562;13.384;2022-09-09T03:53:47;10.80;99.90
34434;DHT22;34290;48.562;13.384;2022-09-09T03:56:14;10.80;99.90
34434;DHT22;34290;48.562;13.384;2022-09-09T03:58:41;10.80;99.90
34434;DHT22;34290;48.562;13.384;2022-09-09T04:01:10;10.80;99.90
34434;DHT22;34290;48.562;13.384;2022-09-09T04:03:39;10.80;99.90
34434;DHT22;34290;48.562;13.384;2022-09-09T04:06:07;10.90;99.90
34434;DHT22;34290;48.562;13.384;2022-09-09T04:08:36;10.90;99.90
34434;DHT22;34290;48.562;13.384;2022-09-09T04:11:04;11.00;99.90
34434;DHT22;34290;48.562;13.384;2022-09-09T04:16:01;11.00;99.90
34434;DHT22;34290;48.562;13.384;2022-09-09T04:18:30;11.00;99.90
34434;DHT22;34290;48.562;13.384;2022-09-09T04:20:58;10.90;99.90
34434;DHT22;34290;48.562;13.384;2022-09-09T04:23:25;10.90;99.90
34434;DHT22;34290;48.562;13.384;2022-09-09T04:25:57;10.90;99.90
34434;DHT22;34290;48.562;13.384;2022-09-09T04:28:25;10.90;99.90
34434;DHT22;34290;48.562;13.384;2022-09-09T04:30:52;10.90;99.90
34434;DHT22;34290;48.562;13.384;2022-09-09T04:35:48;11.00;99.90
34434;DHT22;34290;48.562;13.384;2022-09-09T04:38:16;11.00;99.90
34434;DHT22;34290;48.562;13.384;2022-09-09T04:40:44;11.00;99.90
34434;DHT22;34290;48.562;13.384;2022-09-09T04:43:14;11.10;99.90
34434;DHT22;34290;48.562;13.384;2022-09-09T04:48:09;11.00;99.90
34434;DHT22;34290;48.562;13.384;2022-09-09T04:50:36;11.00;99.90
34434;DHT22;34290;48.562;13.384;2022-09-09T04:53:04;11.10;99.90
34434;DHT22;34290;48.562;13.384;2022-09-09T04:55:32;10.90;99.90
34434;DHT22;34290;48.562;13.384;2022-09-09T04:58:03;10.90;99.90
34434;DHT22;34290;48.562;13.384;2022-09-09T05:00:32;10.90;99.90
34434;DHT22;34290;48.562;13.384;2022-09-09T05:03:02;11.00;99.90
34434;DHT22;34290;48.562;13.384;2022-09-09T05:05:31;11.00;99.90
34434;DHT22;34290;48.562;13.384;2022-09-09T05:08:01;11.10;99.90
34434;DHT22;34290;48.562;13.384;2022-09-09T05:10:29;11.00;99.90
34434;DHT22;34290;48.562;13.384;2022-09-09T05:12:56;11.00;99.90
34434;DHT22;34290;48.562;13.384;2022-09-09T05:15:23;11.10;99.90
34434;DHT22;34290;48.562;13.384;2022-09-09T05:17:51;11.10;99.90
34434;DHT22;34290;48.562;13.384;2022-09-09T05:20:19;11.10;99.90
34434;DHT22;34290;48.562;13.384;2022-09-09T05:25:14;11.10;99.90
34434;DHT22;34290;48.562;13.384;2022-09-09T05:27:41;11.20;99.90
34434;DHT22;34290;48.562;13.384;2022-09-09T05:30:09;11.20;99.90
34434;DHT22;34290;48.562;13.384;2022-09-09T05:32:36;11.30;99.90
34434;DHT22;34290;48.562;13.384;2022-09-09T05:35:05;11.40;99.90
34434;DHT22;34290;48.562;13.384;2022-09-09T05:37:32;11.40;99.90
34434;DHT22;34290;48.562;13.384;2022-09-09T05:42:30;11.70;99.90
34434;DHT22;34290;48.562;13.384;2022-09-09T05:44:57;11.70;99.90
34434;DHT22;34290;48.562;13.384;2022-09-09T05:47:24;11.80;99.90
34434;DHT22;34290;48.562;13.384;2022-09-09T05:49:53;11.80;99.90
34434;DHT22;34290;48.562;13.384;2022-09-09T05:52:22;11.80;99.90
34434;DHT22;34290;48.562;13.384;2022-09-09T05:54:51;11.90;99.90
34434;DHT22;34290;48.562;13.384;2022-09-09T05:57:19;12.00;99.90
34434;DHT22;34290;48.562;13.384;2022-09-09T05:59:46;12.00;99.90
34434;DHT22;34290;48.562;13.384;2022-09-09T06:02:13;12.10;99.90
34434;DHT22;34290;48.562;13.384;2022-09-09T06:04:40;12.20;99.90
34434;DHT22;34290;48.562;13.384;2022-09-09T06:07:07;12.20;99.90
34434;DHT22;34290;48.562;13.384;2022-09-09T06:09:36;12.20;99.90
34434;DHT22;34290;48.562;13.384;2022-09-09T06:12:03;12.20;99.90
34434;DHT22;34290;48.562;13.384;2022-09-09T06:14:30;12.20;99.90
34434;DHT22;34290;48.562;13.384;2022-09-09T06:19:24;12.40;99.90
34434;DHT22;34290;48.562;13.384;2022-09-09T06:21:52;12.40;99.90
34434;DHT22;34290;48.562;13.384;2022-09-09T06:24:20;12.40;99.90
34434;DHT22;34290;48.562;13.384;2022-09-09T06:26:49;12.40;99.90
34434;DHT22;34290;48.562;13.384;2022-09-09T06:29:16;12.40;99.90
34434;DHT22;34290;48.562;13.384;2022-09-09T06:34:10;12.50;99.90
34434;DHT22;34290;48.562;13.384;2022-09-09T06:36:38;12.60;99.90
34434;DHT22;34290;48.562;13.384;2022-09-09T06:39:06;12.70;99.90
34434;DHT22;34290;48.562;13.384;2022-09-09T06:41:34;12.80;99.90
34434;DHT22;34290;48.562;13.384;2022-09-09T06:44:04;12.90;99.90
34434;DHT22;34290;48.562;13.384;2022-09-09T06:46:31;13.00;99.90
34434;DHT22;34290;48.562;13.384;2022-09-09T06:48:59;13.00;99.90
34434;DHT22;34290;48.562;13.384;2022-09-09T06:51:27;13.20;99.90
34434;DHT22;34290;48.562;13.384;2022-09-09T06:53:56;13.30;99.90
34434;DHT22;34290;48.562;13.384;2022-09-09T06:56:25;13.50;99.90
34434;DHT22;34290;48.562;13.384;2022-09-09T06:58:54;13.60;99.90
34434;DHT22;34290;48.562;13.384;2022-09-09T07:01:24;13.70;99.90
34434;DHT22;34290;48.562;13.384;2022-09-09T07:03:53;13.70;99.90
34434;DHT22;34290;48.562;13.384;2022-09-09T07:06:21;13.70;99.90
34434;DHT22;34290;48.562;13.384;2022-09-09T07:08:50;13.50;99.90
34434;DHT22;34290;48.562;13.384;2022-09-09T07:11:18;13.50;99.90
34434;DHT22;34290;48.562;13.384;2022-09-09T07:16:15;13.70;99.90
34434;DHT22;34290;48.562;13.384;2022-09-09T07:18:44;13.80;99.90
34434;DHT22;34290;48.562;13.384;2022-09-09T07:21:12;13.90;99.90
34434;DHT22;34290;48.562;13.384;2022-09-09T07:23:40;13.90;99.90
34434;DHT22;34290;48.562;13.384;2022-09-09T07:26:09;13.80;99.90
34434;DHT22;34290;48.562;13.384;2022-09-09T07:28:37;13.90;99.90
34434;DHT22;34290;48.562;13.384;2022-09-09T07:31:05;14.00;99.90
34434;DHT22;34290;48.562;13.384;2022-09-09T07:33:34;14.00;99.90
34434;DHT22;34290;48.562;13.384;2022-09-09T07:36:08;14.10;99.90
34434;DHT22;34290;48.562;13.384;2022-09-09T07:38:39;14.20;99.90
34434;DHT22;34290;48.562;13.384;2022-09-09T07:41:08;14.20;99.90
34434;DHT22;34290;48.562;13.384;2022-09-09T07:43:38;14.40;99.90
34434;DHT22;34290;48.562;13.384;2022-09-09T07:46:06;14.50;99.90
34434;DHT22;34290;48.562;13.384;2022-09-09T07:51:10;14.60;99.90
34434;DHT22;34290;48.562;13.384;2022-09-09T07:53:38;14.60;99.90
34434;DHT22;34290;48.562;13.384;2022-09-09T07:56:07;14.70;99.90
34434;DHT22;34290;48.562;13.384;2022-09-09T07:58:34;14.80;99.90
34434;DHT22;34290;48.562;13.384;2022-09-09T08:01:06;14.80;99.90
34434;DHT22;34290;48.562;13.384;2022-09-09T08:03:33;14.80;99.90
34434;DHT22;34290;48.562;13.384;2022-09-09T08:06:01;14.90;99.90
34434;DHT22;34290;48.562;13.384;2022-09-09T08:08:30;14.90;99.90
34434;DHT22;34290;48.562;13.384;2022-09-09T08:11:04;14.90;99.90
34434;DHT22;34290;48.562;13.384;2022-09-09T08:13:33;15.00;99.90
34434;DHT22;34290;48.562;13.384;2022-09-09T08:16:11;15.00;99.90
34434;DHT22;34290;48.562;13.384;2022-09-09T08:18:39;15.00;99.90
34434;DHT22;34290;48.562;13.384;2022-09-09T08:21:08;15.00;99.90
34434;DHT22;34290;48.562;13.384;2022-09-09T08:23:39;15.10;99.90
34434;DHT22;34290;48.562;13.384;2022-09-09T08:26:09;15.10;99.90
34434;DHT22;34290;48.562;13.384;2022-09-09T08:28:37;15.20;99.90
34434;DHT22;34290;48.562;13.384;2022-09-09T08:31:07;15.40;99.90
34434;DHT22;34290;48.562;13.384;2022-09-09T08:36:05;15.80;99.90
34434;DHT22;34290;48.562;13.384;2022-09-09T08:38:33;15.90;99.90
34434;DHT22;34290;48.562;13.384;2022-09-09T08:41:12;16.10;99.90
34434;DHT22;34290;48.562;13.384;2022-09-09T08:43:46;16.20;99.90
34434;DHT22;34290;48.562;13.384;2022-09-09T08:46:21;16.20;99.90
34434;DHT22;34290;48.562;13.384;2022-09-09T08:48:55;16.00;99.90
34434;DHT22;34290;48.562;13.384;2022-09-09T08:51:25;16.00;99.90
34434;DHT22;34290;48.562;13.384;2022-09-09T08:53:54;15.90;99.90
34434;DHT22;34290;48.562;13.384;2022-09-09T08:56:24;16.00;99.90
34434;DHT22;34290;48.562;13.384;2022-09-09T08:58:53;16.10;99.90
34434;DHT22;34290;48.562;13.384;2022-09-09T09:01:39;16.10;99.90
34434;DHT22;34290;48.562;13.384;2022-09-09T09:04:17;16.30;99.90
34434;DHT22;34290;48.562;13.384;2022-09-09T09:06:58;16.50;99.90
34434;DHT22;34290;48.562;13.384;2022-09-09T09:09:33;16.70;99.90
34434;DHT22;34290;48.562;13.384;2022-09-09T09:12:14;16.60;99.90
34434;DHT22;34290;48.562;13.384;2022-09-09T09:14:43;16.70;99.90
34434;DHT22;34290;48.562;13.384;2022-09-09T09:17:13;16.80;99.90
34434;DHT22;34290;48.562;13.384;2022-09-09T09:19:42;16.70;99.90
34434;DHT22;34290;48.562;13.384;2022-09-09T09:22:17;16.70;99.90
34434;DHT22;34290;48.562;13.384;2022-09-09T09:24:51;16.80;99.90
34434;DHT22;34290;48.562;13.384;2022-09-09T09:27:26;16.60;99.90
34434;DHT22;34290;48.562;13.384;2022-09-09T09:29:58;16.50;99.90
34434;DHT22;34290;48.562;13.384;2022-09-09T09:32:28;16.50;99.90
34434;DHT22;34290;48.562;13.384;2022-09-09T09:34:58;16.60;99.90
34434;DHT22;34290;48.562;13.384;2022-09-09T09:37:30;16.70;99.90
34434;DHT22;34290;48.562;13.384;2022-09-09T09:40:08;16.80;99.90
34434;DHT22;34290;48.562;13.384;2022-09-09T09:42:37;16.90;99.90
34434;DHT22;34290;48.562;13.384;2022-09-09T09:45:13;17.00;99.90
34434;DHT22;34290;48.562;13.384;2022-09-09T09:47:43;17.10;99.90
34434;DHT22;34290;48.562;13.384;2022-09-09T09:50:17;17.20;99.90
34434;DHT22;34290;48.562;13.384;2022-09-09T09:52:54;17.30;99.90
34434;DHT22;34290;48.562;13.384;2022-09-09T09:55:22;17.40;99.90
34434;DHT22;34290;48.562;13.384;2022-09-09T09:57:52;17.40;99.90
34434;DHT22;34290;48.562;13.384;2022-09-09T10:00:21;17.20;99.90
34434;DHT22;34290;48.562;13.384;2022-09-09T10:02:49;17.30;99.90
34434;DHT22;34290;48.562;13.384;2022-09-09T10:05:19;17.30;99.90
34434;DHT22;34290;48.562;13.384;2022-09-09T10:07:57;17.30;99.90
34434;DHT22;34290;48.562;13.384;2022-09-09T10:10:34;17.30;99.90
34434;DHT22;34290;48.562;13.384;2022-09-09T10:13:09;17.30;99.90
34434;DHT22;34290;48.562;13.384;2022-09-09T10:15:43;17.30;99.90
34434;DHT22;34290;48.562;13.384;2022-09-09T10:18:25;17.30;99.90
34434;DHT22;34290;48.562;13.384;2022-09-09T10:21:02;17.20;99.90
34434;DHT22;34290;48.562;13.384;2022-09-09T10:23:46;17.10;99.90
34434;DHT22;34290;48.562;13.384;2022-09-09T10:26:28;16.90;99.90
34434;DHT22;34290;48.562;13.384;2022-09-09T10:32:03;16.60;99.90
34434;DHT22;34290;48.562;13.384;2022-09-09T10:34:49;16.50;99.90
34434;DHT22;34290;48.562;13.384;2022-09-09T10:37:28;16.40;99.90
34434;DHT22;34290;48.562;13.384;2022-09-09T10:40:04;16.40;99.90
34434;DHT22;34290;48.562;13.384;2022-09-09T10:42:38;16.20;99.90
34434;DHT22;34290;48.562;13.384;2022-09-09T10:45:17;16.10;99.90
34434;DHT22;34290;48.562;13.384;2022-09-09T10:48:03;16.00;99.90
34434;DHT22;34290;48.562;13.384;2022-09-09T10:50:55;16.00;99.90
34434;DHT22;34290;48.562;13.384;2022-09-09T10:53:34;16.00;99.90
34434;DHT22;34290;48.562;13.384;2022-09-09T10:56:06;15.90;99.90
34434;DHT22;34290;48.562;13.384;2022-09-09T10:58:37;15.90;99.90
34434;DHT22;34290;48.562;13.384;2022-09-09T11:01:15;15.80;99.90
34434;DHT22;34290;48.562;13.384;2022-09-09T11:03:51;15.80;99.90
34434;DHT22;34290;48.562;13.384;2022-09-09T11:06:21;15.70;99.90
34434;DHT22;34290;48.562;13.384;2022-09-09T11:08:52;15.70;99.90
34434;DHT22;34290;48.562;13.384;2022-09-09T11:11:24;15.50;99.90
34434;DHT22;34290;48.562;13.384;2022-09-09T11:13:56;15.50;99.90
34434;DHT22;34290;48.562;13.384;2022-09-09T11:16:29;15.50;99.90
34434;DHT22;34290;48.562;13.384;2022-09-09T11:19:03;15.30;99.90
34434;DHT22;34290;48.562;13.384;2022-09-09T11:21:33;15.30;99.90
34434;DHT22;34290;48.562;13.384;2022-09-09T11:24:04;15.30;99.90
34434;DHT22;34290;48.562;13.384;2022-09-09T11:26:38;15.30;99.90
34434;DHT22;34290;48.562;13.384;2022-09-09T11:29:44;15.30;99.90
34434;DHT22;34290;48.562;13.384;2022-09-09T11:35:21;15.30;99.90
34434;DHT22;34290;48.562;13.384;2022-09-09T11:38:17;15.30;99.90
34434;DHT22;34290;48.562;13.384;2022-09-09T11:40:45;15.40;99.90
34434;DHT22;34290;48.562;13.384;2022-09-09T11:43:15;15.30;99.90
34434;DHT22;34290;48.562;13.384;2022-09-09T11:45:51;15.40;99.90
34434;DHT22;34290;48.562;13.384;2022-09-09T11:48:28;15.50;99.90
34434;DHT22;34290;48.562;13.384;2022-09-09T11:51:02;15.60;99.90
34434;DHT22;34290;48.562;13.384;2022-09-09T11:53:29;15.60;99.90
34434;DHT22;34290;48.562;13.384;2022-09-09T11:56:05;15.60;99.90
34434;DHT22;34290;48.562;13.384;2022-09-09T11:58:37;15.60;99.90
34434;DHT22;34290;48.562;13.384;2022-09-09T12:01:30;15.60;99.90
34434;DHT22;34290;48.562;13.384;2022-09-09T12:04:14;15.60;99.90
34434;DHT22;34290;48.562;13.384;2022-09-09T12:06:44;15.60;99.90
34434;DHT22;34290;48.562;13.384;2022-09-09T12:09:32;15.60;99.90
34434;DHT22;34290;48.562;13.384;2022-09-09T12:12:17;15.70;99.90
34434;DHT22;34290;48.562;13.384;2022-09-09T12:14:57;15.80;99.90
34434;DHT22;34290;48.562;13.384;2022-09-09T12:17:26;16.00;99.90
34434;DHT22;34290;48.562;13.384;2022-09-09T12:20:03;16.10;99.90
34434;DHT22;34290;48.562;13.384;2022-09-09T12:22:39;16.10;99.90
34434;DHT22;34290;48.562;13.384;2022-09-09T12:25:17;16.10;99.90
34434;DHT22;34290;48.562;13.384;2022-09-09T12:27:53;16.20;99.90
34434;DHT22;34290;48.562;13.384;2022-09-09T12:30:29;16.20;99.90
34434;DHT22;34290;48.562;13.384;2022-09-09T12:33:02;16.00;99.90
34434;DHT22;34290;48.562;13.384;2022-09-09T12:35:31;16.00;99.90
34434;DHT22;34290;48.562;13.384;2022-09-09T12:38:00;16.00;99.90
34434;DHT22;34290;48.562;13.384;2022-09-09T12:40:29;15.90;99.90
34434;DHT22;34290;48.562;13.384;2022-09-09T12:42:58;15.90;99.90
34434;DHT22;34290;48.562;13.384;2022-09-09T12:45:28;16.00;99.90
34434;DHT22;34290;48.562;13.384;2022-09-09T12:47:58;16.00;99.90
34434;DHT22;34290;48.562;13.384;2022-09-09T12:50:30;16.00;99.90
34434;DHT22;34290;48.562;13.384;2022-09-09T12:52:59;16.20;99.90
34434;DHT22;34290;48.562;13.384;2022-09-09T12:55:29;16.20;99.90
34434;DHT22;34290;48.562;13.384;2022-09-09T12:57:59;16.30;99.90
34434;DHT22;34290;48.562;13.384;2022-09-09T13:00:30;16.20;99.90
34434;DHT22;34290;48.562;13.384;2022-09-09T13:02:58;16.30;99.90
34434;DHT22;34290;48.562;13.384;2022-09-09T13:05:28;16.40;99.90
34434;DHT22;34290;48.562;13.384;2022-09-09T13:08:03;16.40;99.90
34434;DHT22;34290;48.562;13.384;2022-09-09T13:10:33;16.50;99.90
34434;DHT22;34290;48.562;13.384;2022-09-09T13:15:29;16.60;99.90
34434;DHT22;34290;48.562;13.384;2022-09-09T13:17:57;16.70;99.90
34434;DHT22;34290;48.562;13.384;2022-09-09T13:20:26;16.60;99.90
34434;DHT22;34290;48.562;13.384;2022-09-09T13:22:55;16.80;99.90
34434;DHT22;34290;48.562;13.384;2022-09-09T13:25:26;16.80;99.90
34434;DHT22;34290;48.562;13.384;2022-09-09T13:28:04;16.80;99.90
34434;DHT22;34290;48.562;13.384;2022-09-09T13:30:32;16.80;99.90
34434;DHT22;34290;48.562;13.384;2022-09-09T13:33:04;16.90;99.90
34434;DHT22;34290;48.562;13.384;2022-09-09T13:35:32;16.90;99.90
34434;DHT22;34290;48.562;13.384;2022-09-09T13:38:06;16.90;99.90
34434;DHT22;34290;48.562;13.384;2022-09-09T13:40:37;16.70;99.90
34434;DHT22;34290;48.562;13.384;2022-09-09T13:48:09;16.60;99.90
34434;DHT22;34290;48.562;13.384;2022-09-09T13:50:36;16.80;99.90
34434;DHT22;34290;48.562;13.384;2022-09-09T13:53:03;16.80;99.90
34434;DHT22;34290;48.562;13.384;2022-09-09T13:55:30;16.90;99.90
34434;DHT22;34290;48.562;13.384;2022-09-09T13:58:00;17.00;99.90
34434;DHT22;34290;48.562;13.384;2022-09-09T14:00:30;16.90;99.90
34434;DHT22;34290;48.562;13.384;2022-09-09T14:02:57;16.90;99.90
34434;DHT22;34290;48.562;13.384;2022-09-09T14:05:27;16.90;99.90
34434;DHT22;34290;48.562;13.384;2022-09-09T14:07:56;17.00;99.90
34434;DHT22;34290;48.562;13.384;2022-09-09T14:10:26;17.00;99.90
34434;DHT22;34290;48.562;13.384;2022-09-09T14:15:21;17.20;99.90
34434;DHT22;34290;48.562;13.384;2022-09-09T14:17:48;17.30;99.90
34434;DHT22;34290;48.562;13.384;2022-09-09T14:20:15;17.50;99.90
34434;DHT22;34290;48.562;13.384;2022-09-09T14:22:43;17.40;99.90
34434;DHT22;34290;48.562;13.384;2022-09-09T14:27:40;17.30;99.90
34434;DHT22;34290;48.562;13.384;2022-09-09T14:30:09;17.20;99.90
34434;DHT22;34290;48.562;13.384;2022-09-09T14:32:38;17.10;99.90
34434;DHT22;34290;48.562;13.384;2022-09-09T14:35:05;17.10;99.90
34434;DHT22;34290;48.562;13.384;2022-09-09T14:37:32;17.10;99.90
34434;DHT22;34290;48.562;13.384;2022-09-09T14:42:27;17.20;99.90
34434;DHT22;34290;48.562;13.384;2022-09-09T14:44:55;17.20;99.90
34434;DHT22;34290;48.562;13.384;2022-09-09T14:47:22;17.10;99.90
34434;DHT22;34290;48.562;13.384;2022-09-09T14:49:51;17.20;99.90
34434;DHT22;34290;48.562;13.384;2022-09-09T14:54:46;17.20;99.90
34434;DHT22;34290;48.562;13.384;2022-09-09T14:57:13;17.10;99.90
34434;DHT22;34290;48.562;13.384;2022-09-09T14:59:39;17.20;99.90
34434;DHT22;34290;48.562;13.384;2022-09-09T15:02:08;17.30;99.90
34434;DHT22;34290;48.562;13.384;2022-09-09T15:04:35;17.40;99.90
34434;DHT22;34290;48.562;13.384;2022-09-09T15:07:04;17.40;99.90
34434;DHT22;34290;48.562;13.384;2022-09-09T15:09:31;17.40;99.90
34434;DHT22;34290;48.562;13.384;2022-09-09T15:11:57;17.40;99.90
34434;DHT22;34290;48.562;13.384;2022-09-09T15:16:52;17.40;99.90
34434;DHT22;34290;48.562;13.384;2022-09-09T15:19:19;17.40;99.90
34434;DHT22;34290;48.562;13.384;2022-09-09T15:21:46;17.50;99.90
34434;DHT22;34290;48.562;13.384;2022-09-09T15:24:18;17.50;99.90
34434;DHT22;34290;48.562;13.384;2022-09-09T15:26:45;17.40;99.90
34434;DHT22;34290;48.562;13.384;2022-09-09T15:29:12;17.30;99.90
34434;DHT22;34290;48.562;13.384;2022-09-09T15:31:39;17.40;99.90
34434;DHT22;34290;48.562;13.384;2022-09-09T15:34:07;17.30;99.90
34434;DHT22;34290;48.562;13.384;2022-09-09T15:36:35;17.30;99.90
34434;DHT22;34290;48.562;13.384;2022-09-09T15:39:04;17.30;99.90
34434;DHT22;34290;48.562;13.384;2022-09-09T15:41:33;17.30;99.90
34434;DHT22;34290;48.562;13.384;2022-09-09T15:44:01;17.20;99.90
34434;DHT22;34290;48.562;13.384;2022-09-09T15:46:30;17.20;99.90
34434;DHT22;34290;48.562;13.384;2022-09-09T15:48:58;17.20;99.90
34434;DHT22;34290;48.562;13.384;2022-09-09T15:51:29;17.30;99.90
34434;DHT22;34290;48.562;13.384;2022-09-09T15:53:57;17.40;99.90
34434;DHT22;34290;48.562;13.384;2022-09-09T15:56:24;17.40;99.90
34434;DHT22;34290;48.562;13.384;2022-09-09T15:58:55;17.40;99.90
34434;DHT22;34290;48.562;13.384;2022-09-09T16:01:23;17.30;99.90
34434;DHT22;34290;48.562;13.384;2022-09-09T16:06:19;17.20;99.90
34434;DHT22;34290;48.562;13.384;2022-09-09T16:08:48;17.10;99.90
34434;DHT22;34290;48.562;13.384;2022-09-09T16:11:18;17.10;99.90
34434;DHT22;34290;48.562;13.384;2022-09-09T16:13:46;17.10;99.90
34434;DHT22;34290;48.562;13.384;2022-09-09T16:16:16;17.10;99.90
34434;DHT22;34290;48.562;13.384;2022-09-09T16:18:46;17.10;99.90
34434;DHT22;34290;48.562;13.384;2022-09-09T16:21:15;17.00;99.90
34434;DHT22;34290;48.562;13.384;2022-09-09T16:23:42;17.00;99.90
34434;DHT22;34290;48.562;13.384;2022-09-09T16:26:11;17.10;99.90
34434;DHT22;34290;48.562;13.384;2022-09-09T16:28:39;17.10;99.90
34434;DHT22;34290;48.562;13.384;2022-09-09T16:31:08;17.10;99.90
34434;DHT22;34290;48.562;13.384;2022-09-09T16:33:37;17.20;99.90
34434;DHT22;34290;48.562;13.384;2022-09-09T16:36:07;17.20;99.90
34434;DHT22;34290;48.562;13.384;2022-09-09T16:38:35;17.20;99.90
34434;DHT22;34290;48.562;13.384;2022-09-09T16:41:04;17.10;99.90
34434;DHT22;34290;48.562;13.384;2022-09-09T16:43:32;17.10;99.90
34434;DHT22;34290;48.562;13.384;2022-09-09T16:48:27;16.90;99.90